sensor_id;sensor_type;location;lat;lon;timestamp;temperature;humidity
43772;HTU21D;59066;54.782;32.024;2022-09-23T00:01:49;11.69;81.38
43772;HTU21D;59066;54.782;32.024;2022-09-23T00:04:16;11.68;81.31
43772;HTU21D;59066;54.782;32.024;2022-09-23T00:06:44;11.68;81.27
43772;HTU21D;59066;54.782;32.024;2022-09-23T00:09:11;11.63;81.14
43772;HTU21D;59066;54.782;32.024;2022-09-23T00:11:38;11.62;81.20
43772;HTU21D;59066;54.782;32.024;2022-09-23T00:14:06;11.60;81.20
43772;HTU21D;59066;54.782;32.024;2022-09-23T00:16:34;11.60;81.11
43772;HTU21D;59066;54.782;32.024;2022-09-23T00:19:02;11.59;81.14
43772;HTU21D;59066;54.782;32.024;2022-09-23T00:21:30;11.57;81.14
43772;HTU21D;59066;54.782;32.024;2022-09-23T00:23:57;11.56;81.21
43772;HTU21D;59066;54.782;32.024;2022-09-23T00:26:25;11.57;81.17
43772;HTU21D;59066;54.782;32.024;2022-09-23T00:28:53;11.56;81.13
43772;HTU21D;59066;54.782;32.024;2022-09-23T00:31:23;11.52;81.16
43772;HTU21D;59066;54.782;32.024;2022-09-23T00:33:56;11.52;81.21
43772;HTU21D;59066;54.782;32.024;2022-09-23T00:36:24;11.49;81.20
43772;HTU21D;59066;54.782;32.024;2022-09-23T00:38:53;11.48;81.23
43772;HTU21D;59066;54.782;32.024;2022-09-23T00:41:20;11.47;81.22
43772;HTU21D;59066;54.782;32.024;2022-09-23T00:43:53;11.47;81.16
43772;HTU21D;59066;54.782;32.024;2022-09-23T00:46:27;11.49;81.06
43772;HTU21D;59066;54.782;32.024;2022-09-23T00:49:10;11.48;81.01
43772;HTU21D;59066;54.782;32.024;2022-09-23T00:51:49;11.47;81.03
43772;HTU21D;59066;54.782;32.024;2022-09-23T00:54:21;11.43;81.02
43772;HTU21D;59066;54.782;32.024;2022-09-23T00:56:50;11.43;81.09
43772;HTU21D;59066;54.782;32.024;2022-09-23T00:59:18;11.41;81.13
43772;HTU21D;59066;54.782;32.024;2022-09-23T01:01:48;11.41;81.14
43772;HTU21D;59066;54.782;32.024;2022-09-23T01:04:22;11.42;81.14
43772;HTU21D;59066;54.782;32.024;2022-09-23T01:06:50;11.42;81.12
43772;HTU21D;59066;54.782;32.024;2022-09-23T01:09:19;11.43;81.14
43772;HTU21D;59066;54.782;32.024;2022-09-23T01:14:42;11.39;81.10
43772;HTU21D;59066;54.782;32.024;2022-09-23T01:20:14;11.37;81.03
43772;HTU21D;59066;54.782;32.024;2022-09-23T01:33:44;11.39;81.14
43772;HTU21D;59066;54.782;32.024;2022-09-23T01:36:23;11.39;81.16
43772;HTU21D;59066;54.782;32.024;2022-09-23T01:39:02;11.37;81.15
43772;HTU21D;59066;54.782;32.024;2022-09-23T01:41:52;11.38;81.22
43772;HTU21D;59066;54.782;32.024;2022-09-23T01:47:27;11.38;81.26
43772;HTU21D;59066;54.782;32.024;2022-09-23T01:50:00;11.37;81.35
43772;HTU21D;59066;54.782;32.024;2022-09-23T01:52:36;11.38;81.35
43772;HTU21D;59066;54.782;32.024;2022-09-23T01:55:16;11.40;81.41
43772;HTU21D;59066;54.782;32.024;2022-09-23T01:57:56;11.37;81.39
43772;HTU21D;59066;54.782;32.024;2022-09-23T02:00:26;11.40;81.37
43772;HTU21D;59066;54.782;32.024;2022-09-23T02:03:00;11.39;81.40
43772;HTU21D;59066;54.782;32.024;2022-09-23T02:05:35;11.41;81.49
43772;HTU21D;59066;54.782;32.024;2022-09-23T02:08:59;11.41;81.43
43772;HTU21D;59066;54.782;32.024;2022-09-23T02:11:18;11.43;81.42
43772;HTU21D;59066;54.782;32.024;2022-09-23T02:13:55;11.42;81.37
43772;HTU21D;59066;54.782;32.024;2022-09-23T02:19:01;11.43;81.33
43772;HTU21D;59066;54.782;32.024;2022-09-23T02:21:36;11.42;81.43
43772;HTU21D;59066;54.782;32.024;2022-09-23T02:24:11;11.33;81.45
43772;HTU21D;59066;54.782;32.024;2022-09-23T02:26:49;11.42;81.44
43772;HTU21D;59066;54.782;32.024;2022-09-23T02:35:43;11.43;81.32
43772;HTU21D;59066;54.782;32.024;2022-09-23T02:38:00;11.44;81.46
43772;HTU21D;59066;54.782;32.024;2022-09-23T02:40:35;11.51;81.32
43772;HTU21D;59066;54.782;32.024;2022-09-23T02:43:30;11.45;81.29
43772;HTU21D;59066;54.782;32.024;2022-09-23T02:46:02;11.43;81.28
43772;HTU21D;59066;54.782;32.024;2022-09-23T02:48:42;11.46;81.39
43772;HTU21D;59066;54.782;32.024;2022-09-23T02:51:11;11.47;81.33
43772;HTU21D;59066;54.782;32.024;2022-09-23T02:53:39;11.46;81.43
43772;HTU21D;59066;54.782;32.024;2022-09-23T02:56:19;11.48;81.39
43772;HTU21D;59066;54.782;32.024;2022-09-23T02:58:49;11.47;81.38
43772;HTU21D;59066;54.782;32.024;2022-09-23T03:01:50;11.47;81.43
43772;HTU21D;59066;54.782;32.024;2022-09-23T03:04:22;11.46;81.39
43772;HTU21D;59066;54.782;32.024;2022-09-23T03:13:06;11.47;81.41
43772;HTU21D;59066;54.782;32.024;2022-09-23T03:17:39;11.43;81.68
43772;HTU21D;59066;54.782;32.024;2022-09-23T03:20:14;11.45;81.72
43772;HTU21D;59066;54.782;32.024;2022-09-23T03:22:51;11.45;81.62
43772;HTU21D;59066;54.782;32.024;2022-09-23T03:25:23;11.45;81.80
43772;HTU21D;59066;54.782;32.024;2022-09-23T03:27:58;11.46;81.83
43772;HTU21D;59066;54.782;32.024;2022-09-23T03:30:27;11.46;81.76
43772;HTU21D;59066;54.782;32.024;2022-09-23T03:32:57;11.46;81.87
43772;HTU21D;59066;54.782;32.024;2022-09-23T03:35:30;11.46;81.86
43772;HTU21D;59066;54.782;32.024;2022-09-23T03:38:11;11.45;81.84
43772;HTU21D;59066;54.782;32.024;2022-09-23T03:40:43;11.44;81.83
43772;HTU21D;59066;54.782;32.024;2022-09-23T03:43:13;11.49;81.95
43772;HTU21D;59066;54.782;32.024;2022-09-23T03:45:41;11.44;81.85
43772;HTU21D;59066;54.782;32.024;2022-09-23T03:48:08;11.48;81.99
43772;HTU21D;59066;54.782;32.024;2022-09-23T03:50:36;11.49;82.00
43772;HTU21D;59066;54.782;32.024;2022-09-23T03:53:05;11.47;82.05
43772;HTU21D;59066;54.782;32.024;2022-09-23T03:55:33;11.49;81.99
43772;HTU21D;59066;54.782;32.024;2022-09-23T03:58:00;11.47;82.10
43772;HTU21D;59066;54.782;32.024;2022-09-23T04:00:29;11.49;82.03
43772;HTU21D;59066;54.782;32.024;2022-09-23T04:02:56;11.51;82.20
43772;HTU21D;59066;54.782;32.024;2022-09-23T04:05:26;11.47;82.23
43772;HTU21D;59066;54.782;32.024;2022-09-23T04:07:53;11.48;82.23
43772;HTU21D;59066;54.782;32.024;2022-09-23T04:10:21;11.51;82.23
43772;HTU21D;59066;54.782;32.024;2022-09-23T04:12:48;11.46;82.25
43772;HTU21D;59066;54.782;32.024;2022-09-23T04:15:16;11.47;82.38
43772;HTU21D;59066;54.782;32.024;2022-09-23T04:17:43;11.51;82.27
43772;HTU21D;59066;54.782;32.024;2022-09-23T04:20:10;11.56;82.37
43772;HTU21D;59066;54.782;32.024;2022-09-23T04:22:38;11.54;82.39
43772;HTU21D;59066;54.782;32.024;2022-09-23T04:25:06;11.57;82.31
43772;HTU21D;59066;54.782;32.024;2022-09-23T04:27:33;11.57;82.36
43772;HTU21D;59066;54.782;32.024;2022-09-23T04:30:03;11.60;82.24
43772;HTU21D;59066;54.782;32.024;2022-09-23T04:32:31;11.61;82.29
43772;HTU21D;59066;54.782;32.024;2022-09-23T04:34:59;11.62;82.17
43772;HTU21D;59066;54.782;32.024;2022-09-23T04:37:34;11.63;82.26
43772;HTU21D;59066;54.782;32.024;2022-09-23T04:40:02;11.63;82.25
43772;HTU21D;59066;54.782;32.024;2022-09-23T04:42:29;11.66;82.28
43772;HTU21D;59066;54.782;32.024;2022-09-23T04:45:08;11.67;82.23
43772;HTU21D;59066;54.782;32.024;2022-09-23T04:47:35;11.67;82.29
43772;HTU21D;59066;54.782;32.024;2022-09-23T04:50:03;11.68;82.26
43772;HTU21D;59066;54.782;32.024;2022-09-23T04:52:31;11.69;82.31
43772;HTU21D;59066;54.782;32.024;2022-09-23T04:54:58;11.71;82.27
43772;HTU21D;59066;54.782;32.024;2022-09-23T04:57:25;11.73;82.37
43772;HTU21D;59066;54.782;32.024;2022-09-23T04:59:53;11.77;82.33
43772;HTU21D;59066;54.782;32.024;2022-09-23T05:02:23;11.81;82.35
43772;HTU21D;59066;54.782;32.024;2022-09-23T05:04:50;11.83;82.28
43772;HTU21D;59066;54.782;32.024;2022-09-23T05:07:18;11.88;82.17
43772;HTU21D;59066;54.782;32.024;2022-09-23T05:09:45;11.88;82.26
43772;HTU21D;59066;54.782;32.024;2022-09-23T05:12:13;11.92;82.12
43772;HTU21D;59066;54.782;32.024;2022-09-23T05:14:40;11.98;82.02
43772;HTU21D;59066;54.782;32.024;2022-09-23T05:17:07;11.94;81.95
43772;HTU21D;59066;54.782;32.024;2022-09-23T05:19:35;11.97;81.97
43772;HTU21D;59066;54.782;32.024;2022-09-23T05:22:02;11.96;81.88
43772;HTU21D;59066;54.782;32.024;2022-09-23T05:24:31;12.03;81.96
43772;HTU21D;59066;54.782;32.024;2022-09-23T05:26:58;12.03;81.85
43772;HTU21D;59066;54.782;32.024;2022-09-23T05:29:26;12.06;81.81
43772;HTU21D;59066;54.782;32.024;2022-09-23T05:31:55;12.08;81.74
43772;HTU21D;59066;54.782;32.024;2022-09-23T05:34:22;12.10;81.70
43772;HTU21D;59066;54.782;32.024;2022-09-23T05:36:50;12.10;81.52
43772;HTU21D;59066;54.782;32.024;2022-09-23T05:39:18;12.14;81.37
43772;HTU21D;59066;54.782;32.024;2022-09-23T05:41:45;12.10;81.29
43772;HTU21D;59066;54.782;32.024;2022-09-23T05:44:38;12.13;81.28
43772;HTU21D;59066;54.782;32.024;2022-09-23T05:47:05;12.13;81.20
43772;HTU21D;59066;54.782;32.024;2022-09-23T05:49:32;12.17;81.09
43772;HTU21D;59066;54.782;32.024;2022-09-23T05:52:20;12.25;81.06
43772;HTU21D;59066;54.782;32.024;2022-09-23T05:54:47;12.37;81.00
43772;HTU21D;59066;54.782;32.024;2022-09-23T05:57:15;12.44;80.84
43772;HTU21D;59066;54.782;32.024;2022-09-23T05:59:43;12.52;80.68
43772;HTU21D;59066;54.782;32.024;2022-09-23T06:02:13;12.57;80.36
43772;HTU21D;59066;54.782;32.024;2022-09-23T06:04:41;12.60;80.25
43772;HTU21D;59066;54.782;32.024;2022-09-23T06:07:09;12.65;80.10
43772;HTU21D;59066;54.782;32.024;2022-09-23T06:09:37;12.72;79.92
43772;HTU21D;59066;54.782;32.024;2022-09-23T06:12:04;12.79;79.77
43772;HTU21D;59066;54.782;32.024;2022-09-23T06:14:32;12.84;79.46
43772;HTU21D;59066;54.782;32.024;2022-09-23T06:16:59;12.89;79.24
43772;HTU21D;59066;54.782;32.024;2022-09-23T06:19:27;12.92;79.04
43772;HTU21D;59066;54.782;32.024;2022-09-23T06:21:54;12.95;78.90
43772;HTU21D;59066;54.782;32.024;2022-09-23T06:24:22;13.00;78.79
43772;HTU21D;59066;54.782;32.024;2022-09-23T06:26:55;13.09;78.51
43772;HTU21D;59066;54.782;32.024;2022-09-23T06:29:23;13.07;78.41
43772;HTU21D;59066;54.782;32.024;2022-09-23T06:31:50;13.10;78.38
43772;HTU21D;59066;54.782;32.024;2022-09-23T06:34:18;13.18;78.11
43772;HTU21D;59066;54.782;32.024;2022-09-23T06:36:46;13.11;77.97
43772;HTU21D;59066;54.782;32.024;2022-09-23T06:39:14;13.10;77.82
43772;HTU21D;59066;54.782;32.024;2022-09-23T06:41:45;13.08;77.51
43772;HTU21D;59066;54.782;32.024;2022-09-23T06:44:22;13.08;77.49
43772;HTU21D;59066;54.782;32.024;2022-09-23T06:46:54;13.05;77.24
43772;HTU21D;59066;54.782;32.024;2022-09-23T06:49:21;12.96;77.23
43772;HTU21D;59066;54.782;32.024;2022-09-23T06:51:49;12.93;77.17
43772;HTU21D;59066;54.782;32.024;2022-09-23T06:54:16;12.94;77.15
43772;HTU21D;59066;54.782;32.024;2022-09-23T06:56:44;12.94;77.16
43772;HTU21D;59066;54.782;32.024;2022-09-23T06:59:13;12.91;77.13
43772;HTU21D;59066;54.782;32.024;2022-09-23T07:01:43;12.97;77.01
43772;HTU21D;59066;54.782;32.024;2022-09-23T07:04:11;13.00;76.79
43772;HTU21D;59066;54.782;32.024;2022-09-23T07:06:39;13.09;76.63
43772;HTU21D;59066;54.782;32.024;2022-09-23T07:09:07;13.16;76.69
43772;HTU21D;59066;54.782;32.024;2022-09-23T07:11:34;13.30;76.50
43772;HTU21D;59066;54.782;32.024;2022-09-23T07:14:02;13.35;76.41
43772;HTU21D;59066;54.782;32.024;2022-09-23T07:16:30;13.46;76.15
43772;HTU21D;59066;54.782;32.024;2022-09-23T07:18:58;13.59;76.08
43772;HTU21D;59066;54.782;32.024;2022-09-23T07:21:26;13.65;75.79
43772;HTU21D;59066;54.782;32.024;2022-09-23T07:23:53;13.71;75.47
43772;HTU21D;59066;54.782;32.024;2022-09-23T07:26:24;13.83;75.38
43772;HTU21D;59066;54.782;32.024;2022-09-23T07:28:55;13.90;75.10
43772;HTU21D;59066;54.782;32.024;2022-09-23T07:31:23;13.96;74.94
43772;HTU21D;59066;54.782;32.024;2022-09-23T07:34:25;13.99;74.59
43772;HTU21D;59066;54.782;32.024;2022-09-23T07:37:06;14.00;74.58
43772;HTU21D;59066;54.782;32.024;2022-09-23T07:39:33;13.97;74.47
43772;HTU21D;59066;54.782;32.024;2022-09-23T07:42:03;13.99;74.37
43772;HTU21D;59066;54.782;32.024;2022-09-23T07:44:32;14.12;74.25
43772;HTU21D;59066;54.782;32.024;2022-09-23T07:46:59;14.30;73.77
43772;HTU21D;59066;54.782;32.024;2022-09-23T07:49:29;14.40;73.35
43772;HTU21D;59066;54.782;32.024;2022-09-23T07:51:56;14.49;72.99
43772;HTU21D;59066;54.782;32.024;2022-09-23T07:54:24;14.53;72.72
43772;HTU21D;59066;54.782;32.024;2022-09-23T07:56:56;14.53;72.44
43772;HTU21D;59066;54.782;32.024;2022-09-23T07:59:23;14.55;72.41
43772;HTU21D;59066;54.782;32.024;2022-09-23T08:01:53;14.58;72.27
43772;HTU21D;59066;54.782;32.024;2022-09-23T08:04:27;14.60;71.95
43772;HTU21D;59066;54.782;32.024;2022-09-23T08:06:57;14.64;71.78
43772;HTU21D;59066;54.782;32.024;2022-09-23T08:09:33;14.70;71.58
43772;HTU21D;59066;54.782;32.024;2022-09-23T08:12:01;14.86;71.26
43772;HTU21D;59066;54.782;32.024;2022-09-23T08:14:28;15.02;70.78
43772;HTU21D;59066;54.782;32.024;2022-09-23T08:16:56;15.10;70.39
43772;HTU21D;59066;54.782;32.024;2022-09-23T08:19:23;15.14;70.21
43772;HTU21D;59066;54.782;32.024;2022-09-23T08:21:51;15.24;69.76
43772;HTU21D;59066;54.782;32.024;2022-09-23T08:24:21;15.37;69.55
43772;HTU21D;59066;54.782;32.024;2022-09-23T08:26:51;15.46;68.96
43772;HTU21D;59066;54.782;32.024;2022-09-23T08:29:23;15.56;68.95
43772;HTU21D;59066;54.782;32.024;2022-09-23T08:31:52;15.69;68.56
43772;HTU21D;59066;54.782;32.024;2022-09-23T08:34:20;15.82;68.14
43772;HTU21D;59066;54.782;32.024;2022-09-23T08:36:48;15.90;67.70
43772;HTU21D;59066;54.782;32.024;2022-09-23T08:39:17;15.98;67.17
43772;HTU21D;59066;54.782;32.024;2022-09-23T08:42:06;16.10;66.87
43772;HTU21D;59066;54.782;32.024;2022-09-23T08:44:53;16.27;65.73
43772;HTU21D;59066;54.782;32.024;2022-09-23T08:47:34;16.42;65.56
43772;HTU21D;59066;54.782;32.024;2022-09-23T08:55:13;16.48;65.01
43772;HTU21D;59066;54.782;32.024;2022-09-23T09:03:46;16.31;64.25
43772;HTU21D;59066;54.782;32.024;2022-09-23T09:06:19;16.26;64.05
43772;HTU21D;59066;54.782;32.024;2022-09-23T09:08:54;16.25;63.50
43772;HTU21D;59066;54.782;32.024;2022-09-23T09:11:27;16.27;63.54
43772;HTU21D;59066;54.782;32.024;2022-09-23T09:14:18;16.20;63.18
43772;HTU21D;59066;54.782;32.024;2022-09-23T09:17:00;16.15;62.88
43772;HTU21D;59066;54.782;32.024;2022-09-23T09:22:19;15.97;63.14
43772;HTU21D;59066;54.782;32.024;2022-09-23T09:24:48;15.88;63.38
43772;HTU21D;59066;54.782;32.024;2022-09-23T09:27:16;15.83;63.47
43772;HTU21D;59066;54.782;32.024;2022-09-23T09:29:52;15.75;63.50
43772;HTU21D;59066;54.782;32.024;2022-09-23T09:32:35;15.67;63.47
43772;HTU21D;59066;54.782;32.024;2022-09-23T09:38:08;15.45;63.81
43772;HTU21D;59066;54.782;32.024;2022-09-23T09:40:44;15.38;64.00
43772;HTU21D;59066;54.782;32.024;2022-09-23T09:43:19;15.26;63.95
43772;HTU21D;59066;54.782;32.024;2022-09-23T09:48:59;15.11;64.09
43772;HTU21D;59066;54.782;32.024;2022-09-23T09:51:28;15.09;64.27
43772;HTU21D;59066;54.782;32.024;2022-09-23T09:54:21;15.06;64.38
43772;HTU21D;59066;54.782;32.024;2022-09-23T09:56:49;15.03;64.44
43772;HTU21D;59066;54.782;32.024;2022-09-23T09:59:24;14.94;64.59
43772;HTU21D;59066;54.782;32.024;2022-09-23T10:02:23;14.87;64.57
43772;HTU21D;59066;54.782;32.024;2022-09-23T10:08:28;14.69;65.13
43772;HTU21D;59066;54.782;32.024;2022-09-23T10:11:01;14.58;65.16
43772;HTU21D;59066;54.782;32.024;2022-09-23T10:13:29;14.56;65.39
43772;HTU21D;59066;54.782;32.024;2022-09-23T10:15:59;14.51;65.50
43772;HTU21D;59066;54.782;32.024;2022-09-23T10:18:38;14.47;65.64
43772;HTU21D;59066;54.782;32.024;2022-09-23T10:21:15;14.43;65.75
43772;HTU21D;59066;54.782;32.024;2022-09-23T10:23:45;14.45;65.88
43772;HTU21D;59066;54.782;32.024;2022-09-23T10:26:28;14.45;66.03
43772;HTU21D;59066;54.782;32.024;2022-09-23T10:29:01;14.47;66.17
43772;HTU21D;59066;54.782;32.024;2022-09-23T10:31:32;14.52;66.09
43772;HTU21D;59066;54.782;32.024;2022-09-23T10:34:19;14.60;66.01
43772;HTU21D;59066;54.782;32.024;2022-09-23T10:37:14;14.74;65.86
43772;HTU21D;59066;54.782;32.024;2022-09-23T10:39:43;14.98;65.71
43772;HTU21D;59066;54.782;32.024;2022-09-23T10:45:40;15.58;64.65
43772;HTU21D;59066;54.782;32.024;2022-09-23T10:56:39;16.22;62.68
43772;HTU21D;59066;54.782;32.024;2022-09-23T11:07:44;16.32;61.81
43772;HTU21D;59066;54.782;32.024;2022-09-23T11:21:59;16.34;61.25
43772;HTU21D;59066;54.782;32.024;2022-09-23T11:24:47;16.34;61.23
43772;HTU21D;59066;54.782;32.024;2022-09-23T11:30:19;16.32;61.18
43772;HTU21D;59066;54.782;32.024;2022-09-23T11:35:56;16.55;60.97
43772;HTU21D;59066;54.782;32.024;2022-09-23T11:38:36;16.63;60.76
43772;HTU21D;59066;54.782;32.024;2022-09-23T11:41:25;16.62;60.93
43772;HTU21D;59066;54.782;32.024;2022-09-23T11:44:19;16.71;61.09
43772;HTU21D;59066;54.782;32.024;2022-09-23T11:49:57;16.87;61.02
43772;HTU21D;59066;54.782;32.024;2022-09-23T11:53:03;16.98;60.64
43772;HTU21D;59066;54.782;32.024;2022-09-23T11:56:17;17.00;60.65
43772;HTU21D;59066;54.782;32.024;2022-09-23T12:05:08;16.90;60.48
43772;HTU21D;59066;54.782;32.024;2022-09-23T12:07:53;16.86;60.38
43772;HTU21D;59066;54.782;32.024;2022-09-23T12:10:40;16.86;60.54
43772;HTU21D;59066;54.782;32.024;2022-09-23T12:13:19;16.81;60.86
43772;HTU21D;59066;54.782;32.024;2022-09-23T12:18:50;17.02;60.45
43772;HTU21D;59066;54.782;32.024;2022-09-23T12:24:26;17.26;60.09
43772;HTU21D;59066;54.782;32.024;2022-09-23T12:27:02;17.37;59.72
43772;HTU21D;59066;54.782;32.024;2022-09-23T12:29:34;17.38;59.75
43772;HTU21D;59066;54.782;32.024;2022-09-23T12:32:02;17.40;59.85
43772;HTU21D;59066;54.782;32.024;2022-09-23T12:34:41;17.44;59.61
43772;HTU21D;59066;54.782;32.024;2022-09-23T12:37:40;17.38;59.48
43772;HTU21D;59066;54.782;32.024;2022-09-23T12:40:27;17.47;59.61
43772;HTU21D;59066;54.782;32.024;2022-09-23T12:42:57;17.51;59.69
43772;HTU21D;59066;54.782;32.024;2022-09-23T12:48:03;17.58;59.60
43772;HTU21D;59066;54.782;32.024;2022-09-23T12:50:47;17.63;59.04
43772;HTU21D;59066;54.782;32.024;2022-09-23T13:01:22;17.95;58.53
43772;HTU21D;59066;54.782;32.024;2022-09-23T13:03:53;17.96;58.45
43772;HTU21D;59066;54.782;32.024;2022-09-23T13:06:46;17.94;58.36
43772;HTU21D;59066;54.782;32.024;2022-09-23T13:09:21;17.88;58.50
43772;HTU21D;59066;54.782;32.024;2022-09-23T13:11:51;17.90;58.50
43772;HTU21D;59066;54.782;32.024;2022-09-23T13:14:23;17.91;58.29
43772;HTU21D;59066;54.782;32.024;2022-09-23T13:16:54;17.92;58.22
43772;HTU21D;59066;54.782;32.024;2022-09-23T13:22:04;17.97;57.71
43772;HTU21D;59066;54.782;32.024;2022-09-23T13:24:43;18.09;57.49
43772;HTU21D;59066;54.782;32.024;2022-09-23T13:30:00;18.07;57.13
43772;HTU21D;59066;54.782;32.024;2022-09-23T13:32:44;18.04;56.97
43772;HTU21D;59066;54.782;32.024;2022-09-23T13:37:45;17.91;57.35
43772;HTU21D;59066;54.782;32.024;2022-09-23T13:40:32;17.83;57.07
43772;HTU21D;59066;54.782;32.024;2022-09-23T13:43:05;17.75;57.42
43772;HTU21D;59066;54.782;32.024;2022-09-23T13:45:37;17.62;57.65
43772;HTU21D;59066;54.782;32.024;2022-09-23T13:48:11;17.56;57.83
43772;HTU21D;59066;54.782;32.024;2022-09-23T13:50:44;17.63;57.87
43772;HTU21D;59066;54.782;32.024;2022-09-23T13:53:36;17.75;57.69
43772;HTU21D;59066;54.782;32.024;2022-09-23T13:56:14;17.85;57.26
43772;HTU21D;59066;54.782;32.024;2022-09-23T13:58:41;17.95;57.39
43772;HTU21D;59066;54.782;32.024;2022-09-23T14:01:22;17.92;56.66
43772;HTU21D;59066;54.782;32.024;2022-09-23T14:03:50;17.79;57.20
43772;HTU21D;59066;54.782;32.024;2022-09-23T14:06:18;17.67;57.34
43772;HTU21D;59066;54.782;32.024;2022-09-23T14:08:47;17.56;57.49
43772;HTU21D;59066;54.782;32.024;2022-09-23T14:11:16;17.45;57.69
43772;HTU21D;59066;54.782;32.024;2022-09-23T14:13:46;17.32;57.85
43772;HTU21D;59066;54.782;32.024;2022-09-23T14:16:15;17.13;58.24
43772;HTU21D;59066;54.782;32.024;2022-09-23T14:18:45;16.98;58.58
43772;HTU21D;59066;54.782;32.024;2022-09-23T14:24:17;16.73;58.82
43772;HTU21D;59066;54.782;32.024;2022-09-23T14:26:47;16.64;58.88
43772;HTU21D;59066;54.782;32.024;2022-09-23T14:29:18;16.51;59.06
43772;HTU21D;59066;54.782;32.024;2022-09-23T14:31:57;16.37;59.62
43772;HTU21D;59066;54.782;32.024;2022-09-23T14:43:15;15.91;60.90
43772;HTU21D;59066;54.782;32.024;2022-09-23T14:45:46;15.85;60.78
43772;HTU21D;59066;54.782;32.024;2022-09-23T14:48:18;15.78;61.02
43772;HTU21D;59066;54.782;32.024;2022-09-23T14:50:49;15.72;61.28
43772;HTU21D;59066;54.782;32.024;2022-09-23T14:58:44;15.93;61.47
43772;HTU21D;59066;54.782;32.024;2022-09-23T15:04:12;15.90;61.84
43772;HTU21D;59066;54.782;32.024;2022-09-23T15:06:58;15.88;62.02
43772;HTU21D;59066;54.782;32.024;2022-09-23T15:09:34;15.81;62.05
43772;HTU21D;59066;54.782;32.024;2022-09-23T15:12:14;15.71;62.28
43772;HTU21D;59066;54.782;32.024;2022-09-23T15:14:44;15.59;62.60
43772;HTU21D;59066;54.782;32.024;2022-09-23T15:17:42;15.53;63.09
43772;HTU21D;59066;54.782;32.024;2022-09-23T15:20:16;15.43;63.17
43772;HTU21D;59066;54.782;32.024;2022-09-23T15:22:47;15.36;63.37
43772;HTU21D;59066;54.782;32.024;2022-09-23T15:25:18;15.24;63.72
43772;HTU21D;59066;54.782;32.024;2022-09-23T15:30:38;15.01;64.33
43772;HTU21D;59066;54.782;32.024;2022-09-23T15:33:06;14.98;64.53
43772;HTU21D;59066;54.782;32.024;2022-09-23T15:35:35;14.88;64.89
43772;HTU21D;59066;54.782;32.024;2022-09-23T15:38:02;14.84;65.07
43772;HTU21D;59066;54.782;32.024;2022-09-23T15:40:32;14.81;65.23
43772;HTU21D;59066;54.782;32.024;2022-09-23T15:43:13;14.73;65.65
43772;HTU21D;59066;54.782;32.024;2022-09-23T15:45:48;14.71;65.81
43772;HTU21D;59066;54.782;32.024;2022-09-23T15:48:20;14.63;66.11
43772;HTU21D;59066;54.782;32.024;2022-09-23T15:50:49;14.53;66.33
43772;HTU21D;59066;54.782;32.024;2022-09-23T15:53:20;14.48;66.41
43772;HTU21D;59066;54.782;32.024;2022-09-23T15:55:56;14.42;66.38
43772;HTU21D;59066;54.782;32.024;2022-09-23T15:58:42;14.36;66.25
43772;HTU21D;59066;54.782;32.024;2022-09-23T16:01:18;14.27;66.43
43772;HTU21D;59066;54.782;32.024;2022-09-23T16:03:51;14.20;66.40
43772;HTU21D;59066;54.782;32.024;2022-09-23T16:06:18;14.13;66.39
43772;HTU21D;59066;54.782;32.024;2022-09-23T16:08:46;14.04;66.49
43772;HTU21D;59066;54.782;32.024;2022-09-23T16:11:23;13.98;66.77
43772;HTU21D;59066;54.782;32.024;2022-09-23T16:13:51;13.92;66.80
43772;HTU21D;59066;54.782;32.024;2022-09-23T16:16:19;13.81;66.88
43772;HTU21D;59066;54.782;32.024;2022-09-23T16:18:49;13.79;67.16
43772;HTU21D;59066;54.782;32.024;2022-09-23T16:21:24;13.73;67.46
43772;HTU21D;59066;54.782;32.024;2022-09-23T16:23:52;13.69;67.48
43772;HTU21D;59066;54.782;32.024;2022-09-23T16:26:26;13.62;67.59
43772;HTU21D;59066;54.782;32.024;2022-09-23T16:28:56;13.59;67.71
43772;HTU21D;59066;54.782;32.024;2022-09-23T16:31:27;13.54;67.88
43772;HTU21D;59066;54.782;32.024;2022-09-23T16:34:00;13.51;68.08
43772;HTU21D;59066;54.782;32.024;2022-09-23T16:36:47;13.46;68.17
43772;HTU21D;59066;54.782;32.024;2022-09-23T16:39:17;13.44;68.46
43772;HTU21D;59066;54.782;32.024;2022-09-23T16:41:46;13.43;68.63
43772;HTU21D;59066;54.782;32.024;2022-09-23T16:44:13;13.41;68.81
43772;HTU21D;59066;54.782;32.024;2022-09-23T16:46:42;13.38;69.00
43772;HTU21D;59066;54.782;32.024;2022-09-23T16:49:10;13.37;69.17
43772;HTU21D;59066;54.782;32.024;2022-09-23T16:51:38;13.34;69.37
43772;HTU21D;59066;54.782;32.024;2022-09-23T16:54:09;13.31;69.49
43772;HTU21D;59066;54.782;32.024;2022-09-23T16:56:38;13.27;69.69
43772;HTU21D;59066;54.782;32.024;2022-09-23T16:59:11;13.24;69.75
43772;HTU21D;59066;54.782;32.024;2022-09-23T17:01:39;13.20;69.95
43772;HTU21D;59066;54.782;32.024;2022-09-23T17:04:25;13.18;70.07
43772;HTU21D;59066;54.782;32.024;2022-09-23T17:06:53;13.12;70.35
43772;HTU21D;59066;54.782;32.024;2022-09-23T17:09:25;13.11;70.60
43772;HTU21D;59066;54.782;32.024;2022-09-23T17:12:12;13.10;71.09
43772;HTU21D;59066;54.782;32.024;2022-09-23T17:14:41;13.08;70.95
43772;HTU21D;59066;54.782;32.024;2022-09-23T17:17:09;13.05;71.18
43772;HTU21D;59066;54.782;32.024;2022-09-23T17:19:37;13.03;71.41
43772;HTU21D;59066;54.782;32.024;2022-09-23T17:22:07;13.01;71.56
43772;HTU21D;59066;54.782;32.024;2022-09-23T17:24:35;12.99;71.71
43772;HTU21D;59066;54.782;32.024;2022-09-23T17:27:03;13.02;71.93
43772;HTU21D;59066;54.782;32.024;2022-09-23T17:29:30;13.01;72.06
43772;HTU21D;59066;54.782;32.024;2022-09-23T17:31:57;13.04;72.24
43772;HTU21D;59066;54.782;32.024;2022-09-23T17:34:25;12.97;72.38
43772;HTU21D;59066;54.782;32.024;2022-09-23T17:36:54;13.05;72.49
43772;HTU21D;59066;54.782;32.024;2022-09-23T17:39:22;13.04;72.60
43772;HTU21D;59066;54.782;32.024;2022-09-23T17:41:52;12.99;72.83
43772;HTU21D;59066;54.782;32.024;2022-09-23T17:44:22;12.96;72.99
43772;HTU21D;59066;54.782;32.024;2022-09-23T17:46:50;13.02;73.20
43772;HTU21D;59066;54.782;32.024;2022-09-23T17:49:18;12.95;73.41
43772;HTU21D;59066;54.782;32.024;2022-09-23T17:51:48;12.93;73.69
43772;HTU21D;59066;54.782;32.024;2022-09-23T17:54:19;12.99;73.90
43772;HTU21D;59066;54.782;32.024;2022-09-23T17:56:46;12.92;74.02
43772;HTU21D;59066;54.782;32.024;2022-09-23T17:59:14;13.01;74.07
43772;HTU21D;59066;54.782;32.024;2022-09-23T18:01:44;12.97;74.17
43772;HTU21D;59066;54.782;32.024;2022-09-23T18:04:11;12.89;74.37
43772;HTU21D;59066;54.782;32.024;2022-09-23T18:06:39;12.89;74.46
43772;HTU21D;59066;54.782;32.024;2022-09-23T18:09:06;12.89;74.55
43772;HTU21D;59066;54.782;32.024;2022-09-23T18:11:37;12.89;74.73